createdAt,value
2023-11-25T00:00:13.990Z,953.8
2023-11-25T00:01:19.141Z,953.8
2023-11-25T00:02:25.333Z,953.8
2023-11-25T00:03:31.436Z,953.8
2023-11-25T00:04:37.591Z,953.8
2023-11-25T00:05:43.720Z,953.9
2023-11-25T00:06:49.981Z,953.9
2023-11-25T00:07:56.007Z,953.9
2023-11-25T00:09:02.139Z,953.9
2023-11-25T00:10:08.295Z,954
2023-11-25T00:11:14.456Z,954
2023-11-25T00:12:20.572Z,954
2023-11-25T00:13:26.770Z,953.9
2023-11-25T00:14:32.856Z,954
2023-11-25T00:15:38.026Z,954
2023-11-25T00:16:44.183Z,954
2023-11-25T00:17:50.304Z,954.1
2023-11-25T00:18:56.463Z,954
2023-11-25T00:20:02.587Z,954
2023-11-25T00:21:08.757Z,954
2023-11-25T00:22:14.932Z,954
2023-11-25T00:23:21.026Z,954
2023-11-25T00:24:27.163Z,954
2023-11-25T00:25:33.313Z,954
2023-11-25T00:26:39.454Z,954.1
2023-11-25T00:27:45.596Z,954.1
2023-11-25T00:28:51.765Z,954.1
2023-11-25T00:29:56.900Z,954.1
2023-11-25T00:31:03.153Z,954.1
2023-11-25T00:32:09.187Z,954.1
2023-11-25T00:33:15.365Z,954.1
2023-11-25T00:34:21.476Z,954.1
2023-11-25T00:35:27.636Z,954.1
2023-11-25T00:36:33.769Z,954
2023-11-25T00:37:39.911Z,954.1
2023-11-25T00:38:46.044Z,954.1
2023-11-25T00:39:52.199Z,954.1
2023-11-25T00:40:58.355Z,954.1
2023-11-25T00:42:04.474Z,954.1
2023-11-25T00:43:10.639Z,954.1
2023-11-25T00:44:15.789Z,954
2023-11-25T00:45:21.927Z,954
2023-11-25T00:46:28.079Z,954
2023-11-25T00:47:34.239Z,954.1
2023-11-25T00:48:40.369Z,954
2023-11-25T00:49:46.514Z,954.1
2023-11-25T00:50:52.652Z,954
2023-11-25T00:51:58.788Z,954
2023-11-25T00:53:04.936Z,954.1
2023-11-25T00:54:11.074Z,954
2023-11-25T00:55:17.222Z,954
2023-11-25T00:56:23.367Z,954
2023-11-25T00:57:29.532Z,954.1
2023-11-25T00:58:34.678Z,954.1
2023-11-25T00:59:40.815Z,954
2023-11-25T01:00:46.951Z,954
2023-11-25T01:01:53.095Z,954
2023-11-25T01:02:59.245Z,954
2023-11-25T01:04:05.399Z,954
2023-11-25T01:05:11.536Z,954
2023-11-25T01:06:17.698Z,954
2023-11-25T01:07:23.820Z,954
2023-11-25T01:08:29.992Z,954.1
2023-11-25T01:09:36.101Z,954.1
2023-11-25T01:10:42.268Z,954.2
2023-11-25T01:11:48.393Z,954.2
2023-11-25T01:12:53.559Z,954.2
2023-11-25T01:13:59.724Z,954.2
2023-11-25T01:15:05.843Z,954.2
2023-11-25T01:16:11.987Z,954.2
2023-11-25T01:17:18.129Z,954.2
2023-11-25T01:18:24.275Z,954.2
2023-11-25T01:19:30.419Z,954.2
2023-11-25T01:20:36.571Z,954.2
2023-11-25T01:21:42.715Z,954.2
2023-11-25T01:22:48.895Z,954.3
2023-11-25T01:23:55.017Z,954.4
2023-11-25T01:25:01.124Z,954.3
2023-11-25T01:26:07.287Z,954.3
2023-11-25T01:27:12.442Z,954.3
2023-11-25T01:28:18.590Z,954.3
2023-11-25T01:29:24.723Z,954.3
2023-11-25T01:30:30.872Z,954.3
2023-11-25T01:31:37.008Z,954.3
2023-11-25T01:32:43.156Z,954.3
2023-11-25T01:33:49.306Z,954.3
2023-11-25T01:34:55.449Z,954.4
2023-11-25T01:36:01.596Z,954.4
2023-11-25T01:37:07.744Z,954.3
2023-11-25T01:38:13.879Z,954.3
2023-11-25T01:39:20.024Z,954.3
2023-11-25T01:40:26.168Z,954.3
2023-11-25T01:41:31.323Z,954.4
2023-11-25T01:42:37.471Z,954.4
2023-11-25T01:43:43.661Z,954.5
2023-11-25T01:44:49.756Z,954.4
2023-11-25T01:45:55.897Z,954.3
2023-11-25T01:47:02.035Z,954.3
2023-11-25T01:48:08.188Z,954.3
2023-11-25T01:49:14.325Z,954.3
2023-11-25T01:50:20.462Z,954.3
2023-11-25T01:51:26.616Z,954.2
2023-11-25T01:52:32.764Z,954.3
2023-11-25T01:53:38.922Z,954.3
2023-11-25T01:54:45.122Z,954.2
2023-11-25T01:55:50.225Z,954.3
2023-11-25T01:56:56.345Z,954.3
2023-11-25T01:58:02.483Z,954.3
2023-11-25T01:59:08.659Z,954.3
2023-11-25T02:00:14.790Z,954.3
2023-11-25T02:01:20.925Z,954.3
2023-11-25T02:02:27.060Z,954.3
2023-11-25T02:03:33.238Z,954.3
2023-11-25T02:04:39.367Z,954.3
2023-11-25T02:05:45.497Z,954.3
2023-11-25T02:06:51.643Z,954.3
2023-11-25T02:07:57.803Z,954.3
2023-11-25T02:09:03.922Z,954.3
2023-11-25T02:10:09.085Z,954.3
2023-11-25T02:11:15.229Z,954.3
2023-11-25T02:12:21.384Z,954.2
2023-11-25T02:13:27.528Z,954.3
2023-11-25T02:14:33.659Z,954.3
2023-11-25T02:15:39.803Z,954.3
2023-11-25T02:16:45.949Z,954.4
2023-11-25T02:17:52.089Z,954.4
2023-11-25T02:18:58.239Z,954.3
2023-11-25T02:20:04.442Z,954.4
2023-11-25T02:21:10.528Z,954.3
2023-11-25T02:22:16.658Z,954.4
2023-11-25T02:23:22.824Z,954.4
2023-11-25T02:24:27.966Z,954.3
2023-11-25T02:25:34.100Z,954.3
2023-11-25T02:26:40.252Z,954.3
2023-11-25T02:27:46.398Z,954.3
2023-11-25T02:28:52.551Z,954.3
2023-11-25T02:29:58.698Z,954.3
2023-11-25T02:31:04.871Z,954.3
2023-11-25T02:32:11.014Z,954.3
2023-11-25T02:33:17.128Z,954.3
2023-11-25T02:34:23.260Z,954.3
2023-11-25T02:35:29.394Z,954.3
2023-11-25T02:36:35.539Z,954.3
2023-11-25T02:37:41.687Z,954.3
2023-11-25T02:38:46.853Z,954.3
2023-11-25T02:39:53.003Z,954.3
2023-11-25T02:40:59.142Z,954.3
2023-11-25T02:42:05.282Z,954.3
2023-11-25T02:43:11.509Z,954.3
2023-11-25T02:44:17.638Z,954.3
2023-11-25T02:45:22.775Z,954.3
2023-11-25T02:46:28.878Z,954.3
2023-11-25T02:47:35.021Z,954.3
2023-11-25T02:48:41.161Z,954.4
2023-11-25T02:49:47.315Z,954.4
2023-11-25T02:50:53.462Z,954.4
2023-11-25T02:51:59.602Z,954.4
2023-11-25T02:53:05.756Z,954.4
2023-11-25T02:54:11.882Z,954.4
2023-11-25T02:55:18.030Z,954.5
2023-11-25T02:56:24.175Z,954.5
2023-11-25T02:57:30.309Z,954.4
2023-11-25T02:58:36.460Z,954.4
2023-11-25T02:59:41.623Z,954.4
2023-11-25T03:00:47.750Z,954.4
2023-11-25T03:01:54.077Z,954.3
2023-11-25T03:03:00.048Z,954.4
2023-11-25T03:04:06.184Z,954.4
2023-11-25T03:05:12.334Z,954.4
2023-11-25T03:06:18.497Z,954.4
2023-11-25T03:07:24.685Z,954.4
2023-11-25T03:08:30.764Z,954.4
2023-11-25T03:09:36.909Z,954.4
2023-11-25T03:10:43.053Z,954.5
2023-11-25T03:11:49.202Z,954.5
2023-11-25T03:12:55.335Z,954.4
2023-11-25T03:14:00.488Z,954.4
2023-11-25T03:15:06.634Z,954.4
2023-11-25T03:16:12.795Z,954.3
2023-11-25T03:17:18.929Z,954.4
2023-11-25T03:18:25.096Z,954.4
2023-11-25T03:19:31.237Z,954.4
2023-11-25T03:20:37.359Z,954.4
2023-11-25T03:21:43.524Z,954.5
2023-11-25T03:22:49.647Z,954.5
2023-11-25T03:23:55.798Z,954.6
2023-11-25T03:25:01.926Z,954.6
2023-11-25T03:26:08.083Z,954.6
2023-11-25T03:27:14.220Z,954.7
2023-11-25T03:28:19.384Z,954.7
2023-11-25T03:29:25.522Z,954.6
2023-11-25T03:30:31.685Z,954.6
2023-11-25T03:31:37.819Z,954.6
2023-11-25T03:32:43.954Z,954.6
2023-11-25T03:33:50.092Z,954.6
2023-11-25T03:34:56.264Z,954.6
2023-11-25T03:36:02.414Z,954.6
2023-11-25T03:37:08.555Z,954.6
2023-11-25T03:38:14.680Z,954.6
2023-11-25T03:39:20.828Z,954.6
2023-11-25T03:40:26.968Z,954.7
2023-11-25T03:41:33.103Z,954.7
2023-11-25T03:42:39.244Z,954.7
2023-11-25T03:43:45.402Z,954.7
2023-11-25T03:44:50.552Z,954.7
2023-11-25T03:45:56.712Z,954.7
2023-11-25T03:47:02.841Z,954.7
2023-11-25T03:48:08.981Z,954.7
2023-11-25T03:49:15.123Z,954.8
2023-11-25T03:50:21.289Z,954.8
2023-11-25T03:51:27.430Z,954.9
2023-11-25T03:52:33.553Z,954.8
2023-11-25T03:53:39.709Z,954.8
2023-11-25T03:54:45.857Z,954.9
2023-11-25T03:55:51.999Z,954.9
2023-11-25T03:56:58.139Z,954.9
2023-11-25T03:58:04.285Z,954.9
2023-11-25T03:59:09.451Z,954.9
2023-11-25T04:00:15.609Z,954.9
2023-11-25T04:01:21.722Z,954.9
2023-11-25T04:02:27.881Z,954.9
2023-11-25T04:03:34.013Z,954.9
2023-11-25T04:04:40.156Z,954.9
2023-11-25T04:05:46.299Z,955
2023-11-25T04:06:52.458Z,955
2023-11-25T04:07:58.605Z,955.1
2023-11-25T04:09:04.746Z,955.1
2023-11-25T04:10:10.886Z,955.1
2023-11-25T04:11:17.016Z,955.1
2023-11-25T04:12:23.165Z,955.1
2023-11-25T04:13:28.336Z,955.1
2023-11-25T04:14:34.470Z,955.1
2023-11-25T04:15:40.608Z,955.1
2023-11-25T04:16:46.746Z,955.1
2023-11-25T04:17:52.905Z,955.1
2023-11-25T04:18:59.033Z,955.1
2023-11-25T04:20:05.181Z,955.1
2023-11-25T04:21:11.318Z,955.2
2023-11-25T04:22:17.466Z,955.1
2023-11-25T04:23:23.614Z,955.2
2023-11-25T04:24:29.933Z,955.2
2023-11-25T04:25:35.922Z,955.2
2023-11-25T04:26:42.049Z,955.2
2023-11-25T04:27:47.199Z,955.2
2023-11-25T04:28:53.364Z,955.2
2023-11-25T04:29:59.492Z,955.2
2023-11-25T04:31:05.643Z,955.3
2023-11-25T04:32:11.794Z,955.3
2023-11-25T04:33:17.921Z,955.3
2023-11-25T04:34:24.065Z,955.3
2023-11-25T04:35:30.202Z,955.3
2023-11-25T04:36:36.379Z,955.3
2023-11-25T04:37:42.486Z,955.4
2023-11-25T04:38:48.648Z,955.4
2023-11-25T04:39:54.784Z,955.4
2023-11-25T04:41:00.950Z,955.4
2023-11-25T04:42:06.084Z,955.4
2023-11-25T04:43:12.373Z,955.4
2023-11-25T04:44:18.369Z,955.4
2023-11-25T04:45:24.542Z,955.4
2023-11-25T04:46:30.655Z,955.4
2023-11-25T04:47:36.815Z,955.4
2023-11-25T04:48:43.014Z,955.4
2023-11-25T04:49:49.085Z,955.4
2023-11-25T04:50:55.234Z,955.4
2023-11-25T04:52:01.380Z,955.4
2023-11-25T04:53:07.553Z,955.4
2023-11-25T04:54:13.665Z,955.5
2023-11-25T04:55:19.791Z,955.5
2023-11-25T04:56:24.986Z,955.5
2023-11-25T04:57:31.130Z,955.5
2023-11-25T04:58:37.249Z,955.5
2023-11-25T04:59:43.401Z,955.5
2023-11-25T05:00:49.533Z,955.5
2023-11-25T05:01:55.681Z,955.5
2023-11-25T05:03:01.977Z,955.5
2023-11-25T05:04:07.985Z,955.5
2023-11-25T05:05:14.129Z,955.6
2023-11-25T05:06:20.259Z,955.6
2023-11-25T05:07:26.402Z,955.6
2023-11-25T05:08:32.537Z,955.6
2023-11-25T05:09:38.684Z,955.6
2023-11-25T05:10:43.849Z,955.6
2023-11-25T05:11:49.991Z,955.5
2023-11-25T05:12:56.148Z,955.5
2023-11-25T05:14:02.296Z,955.5
2023-11-25T05:15:08.435Z,955.5
2023-11-25T05:16:14.596Z,955.4
2023-11-25T05:17:20.716Z,955.4
2023-11-25T05:18:26.873Z,955.4
2023-11-25T05:19:33.001Z,955.4
2023-11-25T05:20:39.146Z,955.4
2023-11-25T05:21:45.288Z,955.4
2023-11-25T05:22:51.434Z,955.4
2023-11-25T05:23:57.584Z,955.5
2023-11-25T05:25:02.723Z,955.5
2023-11-25T05:26:08.884Z,955.5
2023-11-25T05:27:15.030Z,955.5
2023-11-25T05:28:21.172Z,955.5
2023-11-25T05:29:27.316Z,955.4
2023-11-25T05:30:33.470Z,955.4
2023-11-25T05:31:39.593Z,955.4
2023-11-25T05:32:45.745Z,955.4
2023-11-25T05:33:51.892Z,955.5
2023-11-25T05:34:58.059Z,955.5
2023-11-25T05:36:04.166Z,955.5
2023-11-25T05:37:10.464Z,955.6
2023-11-25T05:38:16.464Z,955.6
2023-11-25T05:39:21.637Z,955.6
2023-11-25T05:40:27.777Z,955.6
2023-11-25T05:41:33.910Z,955.6
2023-11-25T05:42:40.057Z,955.6
2023-11-25T05:43:46.196Z,955.6
2023-11-25T05:44:52.336Z,955.6
2023-11-25T05:45:58.484Z,955.7
2023-11-25T05:47:04.645Z,955.7
2023-11-25T05:48:10.765Z,955.8
2023-11-25T05:49:16.913Z,955.8
2023-11-25T05:50:23.079Z,955.8
2023-11-25T05:51:29.207Z,955.8
2023-11-25T05:52:35.369Z,955.8
2023-11-25T05:53:40.544Z,955.8
2023-11-25T05:54:46.641Z,955.8
2023-11-25T05:55:52.783Z,955.8
2023-11-25T05:56:58.925Z,955.8
2023-11-25T05:58:05.071Z,955.8
2023-11-25T05:59:11.230Z,955.8
2023-11-25T06:00:17.370Z,955.8
2023-11-25T06:01:23.520Z,955.8
2023-11-25T06:02:29.696Z,955.8
2023-11-25T06:03:35.814Z,955.8
2023-11-25T06:04:41.933Z,955.8
2023-11-25T06:05:48.082Z,955.8
2023-11-25T06:06:54.257Z,955.7
2023-11-25T06:07:59.418Z,955.8
2023-11-25T06:09:05.524Z,955.7
2023-11-25T06:10:11.674Z,955.7
2023-11-25T06:11:17.816Z,955.7
2023-11-25T06:12:23.963Z,955.7
2023-11-25T06:13:30.102Z,955.7
2023-11-25T06:14:36.251Z,955.7
2023-11-25T06:15:42.392Z,955.7
2023-11-25T06:16:48.547Z,955.7
2023-11-25T06:17:54.675Z,955.7
2023-11-25T06:19:00.849Z,955.7
2023-11-25T06:20:06.962Z,955.7
2023-11-25T06:21:13.110Z,955.7
2023-11-25T06:22:18.272Z,955.7
2023-11-25T06:23:24.410Z,955.7
2023-11-25T06:24:30.549Z,955.7
2023-11-25T06:25:36.706Z,955.7
2023-11-25T06:26:41.871Z,955.8
2023-11-25T06:27:48.021Z,955.8
2023-11-25T06:28:54.159Z,955.8
2023-11-25T06:30:00.294Z,955.8
2023-11-25T06:31:06.443Z,955.8
2023-11-25T06:32:12.592Z,955.8
2023-11-25T06:33:18.751Z,955.9
2023-11-25T06:34:24.875Z,955.9
2023-11-25T06:35:31.081Z,955.9
2023-11-25T06:36:37.170Z,955.9
2023-11-25T06:37:43.323Z,955.9
2023-11-25T06:38:49.441Z,955.9
2023-11-25T06:39:55.612Z,955.9
2023-11-25T06:41:00.772Z,956
2023-11-25T06:42:06.898Z,955.9
2023-11-25T06:43:13.079Z,955.9
2023-11-25T06:44:19.194Z,956
2023-11-25T06:45:25.326Z,956
2023-11-25T06:46:31.466Z,956
2023-11-25T06:47:37.606Z,956
2023-11-25T06:48:43.761Z,956
2023-11-25T06:49:49.908Z,956.1
2023-11-25T06:50:56.096Z,956.1
2023-11-25T06:52:02.192Z,956.1
2023-11-25T06:53:08.356Z,956.1
2023-11-25T06:54:14.476Z,956.2
2023-11-25T06:55:19.668Z,956.2
2023-11-25T06:56:25.821Z,956.2
2023-11-25T06:57:31.921Z,956.2
2023-11-25T06:58:38.059Z,956.2
2023-11-25T06:59:44.222Z,956.2
2023-11-25T07:00:50.359Z,956.2
2023-11-25T07:01:56.509Z,956.2
2023-11-25T07:03:02.649Z,956.2
2023-11-25T07:04:08.794Z,956.2
2023-11-25T07:06:21.075Z,956.2
2023-11-25T07:07:27.231Z,956.2
2023-11-25T07:08:33.368Z,956.2
2023-11-25T07:09:38.541Z,956.2
2023-11-25T07:10:44.687Z,956.2
2023-11-25T07:11:50.817Z,956.3
2023-11-25T07:12:56.950Z,956.3
2023-11-25T07:14:03.212Z,956.3
2023-11-25T07:15:09.281Z,956.3
2023-11-25T07:16:15.384Z,956.3
2023-11-25T07:17:21.525Z,956.3
2023-11-25T07:18:27.690Z,956.3
2023-11-25T07:19:33.826Z,956.3
2023-11-25T07:20:39.960Z,956.4
2023-11-25T07:21:46.111Z,956.4
2023-11-25T07:22:52.255Z,956.4
2023-11-25T07:23:57.405Z,956.4
2023-11-25T07:25:03.564Z,956.4
2023-11-25T07:26:09.722Z,956.4
2023-11-25T07:27:15.835Z,956.5
2023-11-25T07:28:21.988Z,956.5
2023-11-25T07:29:28.131Z,956.5
2023-11-25T07:30:34.295Z,956.5
2023-11-25T07:31:40.447Z,956.5
2023-11-25T07:32:46.563Z,956.5
2023-11-25T07:33:52.753Z,956.5
2023-11-25T07:34:58.847Z,956.6
2023-11-25T07:36:04.999Z,956.6
2023-11-25T07:37:11.144Z,956.7
2023-11-25T07:38:16.329Z,956.7
2023-11-25T07:39:22.435Z,956.7
2023-11-25T07:40:28.595Z,956.7
2023-11-25T07:41:34.727Z,956.7
2023-11-25T07:42:40.870Z,956.7
2023-11-25T07:43:47.045Z,956.8
2023-11-25T07:44:53.183Z,956.8
2023-11-25T07:45:59.305Z,956.8
2023-11-25T07:47:05.439Z,956.7
2023-11-25T07:48:11.726Z,956.7
2023-11-25T07:49:17.728Z,956.7
2023-11-25T07:50:23.887Z,956.7
2023-11-25T07:51:30.014Z,956.8
2023-11-25T07:52:35.185Z,956.8
2023-11-25T07:53:41.327Z,956.8
2023-11-25T07:54:47.469Z,956.8
2023-11-25T07:55:53.692Z,956.8
2023-11-25T07:56:59.759Z,956.8
2023-11-25T07:58:05.901Z,956.8
2023-11-25T07:59:12.077Z,956.8
2023-11-25T08:00:18.314Z,956.8
2023-11-25T08:01:24.362Z,956.8
2023-11-25T08:02:30.473Z,956.8
2023-11-25T08:03:36.612Z,956.8
2023-11-25T08:04:42.786Z,956.8
2023-11-25T08:05:48.922Z,956.7
2023-11-25T08:06:54.068Z,956.7
2023-11-25T08:08:00.208Z,956.7
2023-11-25T08:09:06.447Z,956.8
2023-11-25T08:10:12.484Z,956.8
2023-11-25T08:11:18.641Z,956.8
2023-11-25T08:12:24.784Z,956.8
2023-11-25T08:13:30.932Z,956.8
2023-11-25T08:14:37.075Z,956.8
2023-11-25T08:15:43.237Z,956.8
2023-11-25T08:16:49.388Z,956.9
2023-11-25T08:17:55.500Z,956.9
2023-11-25T08:19:01.639Z,956.9
2023-11-25T08:20:07.812Z,956.8
2023-11-25T08:21:12.948Z,956.8
2023-11-25T08:22:19.080Z,956.8
2023-11-25T08:23:25.228Z,956.8
2023-11-25T08:24:31.374Z,957
2023-11-25T08:25:37.516Z,956.9
2023-11-25T08:26:43.669Z,956.9
2023-11-25T08:27:49.800Z,956.9
2023-11-25T08:28:55.958Z,957
2023-11-25T08:30:02.094Z,957
2023-11-25T08:31:08.233Z,957
2023-11-25T08:32:14.404Z,957
2023-11-25T08:33:20.525Z,956.9
2023-11-25T08:34:26.700Z,956.9
2023-11-25T08:35:31.822Z,957
2023-11-25T08:36:37.960Z,957
2023-11-25T08:37:44.120Z,957
2023-11-25T08:38:50.255Z,957
2023-11-25T08:39:56.399Z,957.1
2023-11-25T08:41:02.544Z,957.1
2023-11-25T08:42:08.706Z,957.1
2023-11-25T08:43:14.839Z,957
2023-11-25T08:44:20.981Z,957
2023-11-25T08:45:27.157Z,957.1
2023-11-25T08:46:33.259Z,957.1
2023-11-25T08:47:39.413Z,957.1
2023-11-25T08:48:45.550Z,957
2023-11-25T08:49:50.740Z,957
2023-11-25T08:50:56.922Z,957.1
2023-11-25T08:52:02.985Z,957.1
2023-11-25T08:53:09.148Z,957.2
2023-11-25T08:54:15.272Z,957.2
2023-11-25T08:55:21.473Z,957.2
2023-11-25T08:56:27.562Z,957.2
2023-11-25T08:57:33.735Z,957.2
2023-11-25T08:58:39.865Z,957.2
2023-11-25T08:59:45.990Z,957.2
2023-11-25T09:00:52.150Z,957.2
2023-11-25T09:01:58.286Z,957.2
2023-11-25T09:03:04.438Z,957.2
2023-11-25T09:04:09.598Z,957.1
2023-11-25T09:05:15.738Z,957.1
2023-11-25T09:06:21.887Z,957.1
2023-11-25T09:07:28.017Z,957.1
2023-11-25T09:08:34.160Z,957.1
2023-11-25T09:09:40.304Z,957.1
2023-11-25T09:10:46.446Z,957.1
2023-11-25T09:11:52.596Z,957.1
2023-11-25T09:12:58.729Z,957.2
2023-11-25T09:14:04.904Z,957.2
2023-11-25T09:15:11.020Z,957.2
2023-11-25T09:16:17.168Z,957.2
2023-11-25T09:17:23.354Z,957.1
2023-11-25T09:18:28.468Z,957.1
2023-11-25T09:19:34.606Z,957.1
2023-11-25T09:20:40.751Z,957.1
2023-11-25T09:21:47.143Z,957.1
2023-11-25T09:22:53.043Z,957.1
2023-11-25T09:23:59.190Z,957.2
2023-11-25T09:25:05.353Z,957.2
2023-11-25T09:26:11.480Z,957.2
2023-11-25T09:27:17.628Z,957.2
2023-11-25T09:28:23.759Z,957.2
2023-11-25T09:29:29.907Z,957.2
2023-11-25T09:30:36.059Z,957.2
2023-11-25T09:31:42.194Z,957.2
2023-11-25T09:32:47.423Z,957.2
2023-11-25T09:33:53.498Z,957.3
2023-11-25T09:34:59.649Z,957.3
2023-11-25T09:36:05.775Z,957.3
2023-11-25T09:37:11.937Z,957.3
2023-11-25T09:38:18.133Z,957.3
2023-11-25T09:39:24.216Z,957.3
2023-11-25T09:40:30.389Z,957.3
2023-11-25T09:41:36.525Z,957.3
2023-11-25T09:42:42.669Z,957.3
2023-11-25T09:43:48.783Z,957.4
2023-11-25T09:44:54.938Z,957.4
2023-11-25T09:46:01.088Z,957.4
2023-11-25T09:47:06.239Z,957.4
2023-11-25T09:48:12.371Z,957.4
2023-11-25T09:49:18.516Z,957.4
2023-11-25T09:50:24.701Z,957.4
2023-11-25T09:51:30.828Z,957.5
2023-11-25T09:52:36.947Z,957.5
2023-11-25T09:53:43.101Z,957.5
2023-11-25T09:54:49.260Z,957.6
2023-11-25T09:55:55.417Z,957.5
2023-11-25T09:57:01.536Z,957.5
2023-11-25T09:58:07.680Z,957.5
2023-11-25T09:59:13.808Z,957.4
2023-11-25T10:00:19.947Z,957.5
2023-11-25T10:01:25.120Z,957.5
2023-11-25T10:02:31.264Z,957.5
2023-11-25T10:03:37.407Z,957.5
2023-11-25T10:04:43.539Z,957.5
2023-11-25T10:05:49.691Z,957.5
2023-11-25T10:06:55.844Z,957.5
2023-11-25T10:08:01.005Z,957.5
2023-11-25T10:09:07.129Z,957.5
2023-11-25T10:10:13.283Z,957.5
2023-11-25T10:11:19.476Z,957.5
2023-11-25T10:12:25.596Z,957.5
2023-11-25T10:13:31.724Z,957.5
2023-11-25T10:14:37.859Z,957.5
2023-11-25T10:15:44.012Z,957.4
2023-11-25T10:16:50.142Z,957.3
2023-11-25T10:17:56.293Z,957.4
2023-11-25T10:19:02.437Z,957.3
2023-11-25T10:20:08.578Z,957.4
2023-11-25T10:21:14.724Z,957.4
2023-11-25T10:22:19.883Z,957.4
2023-11-25T10:23:26.026Z,957.4
2023-11-25T10:24:32.160Z,957.4
2023-11-25T10:25:38.323Z,957.4
2023-11-25T10:26:44.468Z,957.4
2023-11-25T10:27:50.615Z,957.4
2023-11-25T10:28:56.800Z,957.4
2023-11-25T10:30:02.897Z,957.4
2023-11-25T10:31:09.049Z,957.3
2023-11-25T10:32:15.191Z,957.4
2023-11-25T10:33:21.317Z,957.3
2023-11-25T10:34:27.459Z,957.3
2023-11-25T10:35:33.610Z,957.4
2023-11-25T10:36:39.776Z,957.4
2023-11-25T10:37:44.925Z,957.2
2023-11-25T10:38:51.063Z,957.2
2023-11-25T10:39:57.195Z,957.3
2023-11-25T10:41:03.338Z,957.3
2023-11-25T10:42:09.484Z,957.3
2023-11-25T10:43:15.624Z,957.3
2023-11-25T10:44:21.767Z,957.3
2023-11-25T10:45:27.908Z,957.3
2023-11-25T10:46:34.053Z,957.4
2023-11-25T10:47:40.195Z,957.3
2023-11-25T10:48:46.321Z,957.4
2023-11-25T10:49:52.486Z,957.5
2023-11-25T10:50:58.626Z,957.5
2023-11-25T10:52:04.779Z,957.5
2023-11-25T10:53:09.974Z,957.3
2023-11-25T10:54:16.074Z,957.2
2023-11-25T10:55:22.215Z,957.2
2023-11-25T10:56:28.358Z,957.2
2023-11-25T10:57:34.506Z,957.3
2023-11-25T10:58:40.646Z,957.3
2023-11-25T10:59:46.775Z,957.3
2023-11-25T11:00:52.990Z,957.3
2023-11-25T11:01:59.093Z,957.3
2023-11-25T11:04:11.371Z,957.3
2023-11-25T11:05:17.506Z,957.3
2023-11-25T11:06:23.647Z,957.3
2023-11-25T11:07:28.808Z,957.3
2023-11-25T11:08:34.942Z,957.3
2023-11-25T11:09:41.167Z,957.3
2023-11-25T11:10:47.251Z,957.3
2023-11-25T11:11:53.378Z,957.3
2023-11-25T11:12:59.524Z,957.3
2023-11-25T11:14:05.673Z,957.3
2023-11-25T11:15:11.807Z,957.3
2023-11-25T11:16:17.968Z,957.3
2023-11-25T11:17:24.110Z,957.2
2023-11-25T11:18:30.243Z,957.1
2023-11-25T11:19:36.383Z,957.2
2023-11-25T11:20:42.533Z,957
2023-11-25T11:21:47.691Z,957
2023-11-25T11:22:53.842Z,957
2023-11-25T11:23:59.975Z,957
2023-11-25T11:25:06.118Z,957
2023-11-25T11:26:12.253Z,957
2023-11-25T11:27:18.393Z,957
2023-11-25T11:28:24.701Z,957
2023-11-25T11:29:30.688Z,957
2023-11-25T11:30:36.834Z,957
2023-11-25T11:31:42.975Z,957
2023-11-25T11:32:49.131Z,957
2023-11-25T11:33:55.280Z,957.1
2023-11-25T11:35:01.450Z,957.2
2023-11-25T11:36:06.563Z,957.1
2023-11-25T11:37:12.710Z,957
2023-11-25T11:38:18.848Z,956.9
2023-11-25T11:39:24.997Z,956.9
2023-11-25T11:40:31.151Z,956.8
2023-11-25T11:41:37.279Z,956.8
2023-11-25T11:42:43.435Z,956.8
2023-11-25T11:43:49.596Z,956.8
2023-11-25T11:44:55.704Z,956.8
2023-11-25T11:46:01.899Z,956.8
2023-11-25T11:47:08.000Z,956.8
2023-11-25T11:48:14.144Z,956.8
2023-11-25T11:49:20.318Z,956.8
2023-11-25T11:50:25.474Z,956.8
2023-11-25T11:51:31.588Z,956.9
2023-11-25T11:52:37.730Z,956.9
2023-11-25T11:53:43.873Z,956.9
2023-11-25T11:54:50.105Z,956.9
2023-11-25T11:55:56.164Z,956.9
2023-11-25T11:57:02.323Z,956.9
2023-11-25T11:58:08.463Z,956.9
2023-11-25T11:59:14.617Z,956.9
2023-11-25T12:00:20.750Z,956.9
2023-11-25T12:01:26.875Z,956.9
2023-11-25T12:02:33.027Z,956.9
2023-11-25T12:03:39.171Z,956.9
2023-11-25T12:04:44.343Z,956.9
2023-11-25T12:05:50.461Z,956.9
2023-11-25T12:06:56.630Z,956.8
2023-11-25T12:08:02.774Z,956.8
2023-11-25T12:09:08.895Z,956.9
2023-11-25T12:10:15.028Z,956.9
2023-11-25T12:11:21.182Z,956.9
2023-11-25T12:12:27.316Z,956.9
2023-11-25T12:13:33.481Z,956.9
2023-11-25T12:14:39.603Z,956.9
2023-11-25T12:15:45.748Z,956.9
2023-11-25T12:16:51.903Z,956.9
2023-11-25T12:17:58.042Z,956.9
2023-11-25T12:19:03.199Z,956.9
2023-11-25T12:20:09.342Z,956.9
2023-11-25T12:21:15.522Z,956.9
2023-11-25T12:22:21.625Z,956.8
2023-11-25T12:23:27.796Z,956.8
2023-11-25T12:24:33.918Z,956.8
2023-11-25T12:25:40.065Z,956.9
2023-11-25T12:26:46.198Z,956.9
2023-11-25T12:27:52.350Z,956.9
2023-11-25T12:28:58.501Z,956.9
2023-11-25T12:30:04.692Z,956.9
2023-11-25T12:31:10.783Z,956.9
2023-11-25T12:32:16.913Z,956.9
2023-11-25T12:33:22.078Z,956.9
2023-11-25T12:34:28.216Z,956.9
2023-11-25T12:35:34.372Z,956.9
2023-11-25T12:36:40.561Z,956.8
2023-11-25T12:37:46.659Z,956.8
2023-11-25T12:38:52.810Z,956.8
2023-11-25T12:39:58.969Z,956.9
2023-11-25T12:41:05.091Z,956.9
2023-11-25T12:42:11.223Z,956.9
2023-11-25T12:43:17.369Z,956.9
2023-11-25T12:44:23.523Z,956.8
2023-11-25T12:45:29.662Z,956.9
2023-11-25T12:46:35.804Z,956.8
2023-11-25T12:47:40.998Z,956.8
2023-11-25T12:48:47.109Z,956.8
2023-11-25T12:49:53.254Z,956.7
2023-11-25T12:50:59.416Z,956.7
2023-11-25T12:52:05.553Z,956.6
2023-11-25T12:53:11.680Z,956.6
2023-11-25T12:54:17.823Z,956.7
2023-11-25T12:55:23.967Z,956.7
2023-11-25T12:56:30.129Z,956.7
2023-11-25T12:57:36.251Z,956.7
2023-11-25T12:58:42.393Z,956.7
2023-11-25T12:59:48.547Z,956.7
2023-11-25T13:00:54.681Z,956.7
2023-11-25T13:01:59.899Z,956.7
2023-11-25T13:03:05.992Z,956.7
2023-11-25T13:04:12.148Z,956.7
2023-11-25T13:05:18.273Z,956.7
2023-11-25T13:06:24.421Z,956.7
2023-11-25T13:07:30.564Z,956.7
2023-11-25T13:08:36.706Z,956.7
2023-11-25T13:09:42.865Z,956.7
2023-11-25T13:10:48.992Z,956.6
2023-11-25T13:11:55.139Z,956.6
2023-11-25T13:13:01.306Z,956.6
2023-11-25T13:14:07.499Z,956.6
2023-11-25T13:15:13.566Z,956.6
2023-11-25T13:16:18.733Z,956.6
2023-11-25T13:17:24.888Z,956.5
2023-11-25T13:18:31.018Z,956.5
2023-11-25T13:19:37.150Z,956.5
2023-11-25T13:20:43.302Z,956.5
2023-11-25T13:21:49.437Z,956.6
2023-11-25T13:22:55.585Z,956.6
2023-11-25T13:24:01.734Z,956.6
2023-11-25T13:25:07.877Z,956.6
2023-11-25T13:26:14.009Z,956.7
2023-11-25T13:27:20.169Z,956.7
2023-11-25T13:28:26.408Z,956.7
2023-11-25T13:29:32.455Z,956.8
2023-11-25T13:30:37.601Z,956.8
2023-11-25T13:31:43.818Z,956.8
2023-11-25T13:32:49.898Z,956.8
2023-11-25T13:33:56.030Z,956.8
2023-11-25T13:35:02.199Z,956.8
2023-11-25T13:36:08.336Z,956.9
2023-11-25T13:37:14.479Z,956.8
2023-11-25T13:38:20.637Z,956.8
2023-11-25T13:39:26.754Z,956.8
2023-11-25T13:40:32.912Z,956.8
2023-11-25T13:41:39.045Z,956.8
2023-11-25T13:42:45.216Z,956.8
2023-11-25T13:43:51.333Z,956.8
2023-11-25T13:44:56.491Z,956.7
2023-11-25T13:46:02.654Z,956.7
2023-11-25T13:47:08.797Z,956.7
2023-11-25T13:48:14.959Z,956.7
2023-11-25T13:49:20.076Z,956.7
2023-11-25T13:50:26.229Z,956.7
2023-11-25T13:51:32.414Z,956.6
2023-11-25T13:52:38.520Z,956.6
2023-11-25T13:53:44.655Z,956.6
2023-11-25T13:54:50.802Z,956.6
2023-11-25T13:55:56.945Z,956.6
2023-11-25T13:57:03.152Z,956.6
2023-11-25T13:58:09.254Z,956.6
2023-11-25T13:59:15.378Z,956.6
2023-11-25T14:00:21.516Z,956.6
2023-11-25T14:01:27.665Z,956.6
2023-11-25T14:02:33.839Z,956.6
2023-11-25T14:03:38.970Z,956.6
2023-11-25T14:04:45.124Z,956.6
2023-11-25T14:05:51.263Z,956.6
2023-11-25T14:06:57.394Z,956.6
2023-11-25T14:08:03.536Z,956.5
2023-11-25T14:09:09.695Z,956.5
2023-11-25T14:10:15.819Z,956.6
2023-11-25T14:11:21.974Z,956.5
2023-11-25T14:12:28.110Z,956.5
2023-11-25T14:13:34.261Z,956.5
2023-11-25T14:14:40.405Z,956.5
2023-11-25T14:15:46.550Z,956.5
2023-11-25T14:16:52.686Z,956.5